Avon, North Carolina
Current Conditions -  °F | °C
As of 8:51 PM on Friday 24 Oct 2014 (Local Time) from KHSE Reporting Station
Clear Clear  
Wind Chill: 58°   Ceiling: Unl
Heat Index: 58°   Visibility: 10mi
Dew Point: 55°   Wind: 3mph
Humidity: 90%   Direction: 320°NW
Pressure: 29.96"   Gusts: NA
Location:  35.35°N, 75.51°W
Report Text: KHSE 250051Z AUTO 32003KT 10SM CLR 14/13 A2996 RMK AO2 SLP143 T01440128 TSNO
Loading
Personal Weather Stations






























Interactive Weather Map New forecast layout! Learn more

10-Day Weather Forecast

Advertisements
Track Severe Weather on mobile